Seven Seas Mariner — C6VV8 — position and weather

sailwx.info

Track history (hours):
 
Tides and Currents Weather Stations Pressure Air Temp Water Temp Dewpoint Dewpoint Depression Visibility Wind Speed Wind Dir Waves Ship Positions

Seven Seas Mariner

Last reported at 2018-Oct-15 15:12 UTC. Time now 2018-Nov-13 07:16 UTC.
Position N 09°13' W 079°55'.
Warning: this ship's position is 28 days out of date.

Length 216 m; draft 7.2 m.

Type: Passenger vessel. MMSI: 311622000.

Date/timePositionNaut miles runAvg speedWind from/ knotsBaromVisibWave heightAir tempDewpointWater temp
2018-Oct-15 15:12N 09°13' W 079°55'1 4.2
2018-Oct-15 14:59N 09°13' W 079°56'0 0.7
2018-Oct-15 14:25N 09°14' W 079°55'1 2.9
2018-Oct-15 14:00N 09°15' W 079°55'1 2.3
2018-Oct-15 13:30N 09°16' W 079°55'0 0.4
2018-Oct-15 13:03N 09°16' W 079°55'0 0.0
2018-Oct-15 13:00N 09°16' W 079°55'0 0.6
2018-Oct-15 12:29N 09°17' W 079°55'0 0.4
2018-Oct-15 12:01N 09°17' W 079°55'0 1.6
2018-Oct-15 11:59N 09°17' W 079°55'2 3.5
2018-Oct-15 11:30N 09°19' W 079°55'2 5.0
2018-Oct-15 11:03N 09°21' W 079°55'0 5.0
2018-Oct-15 11:00N 09°21' W 079°55'3 5.6
2018-Oct-15 10:30N 09°24' W 079°55'511.6
2018-Oct-15 10:03N 09°29' W 079°53'115.4
2018-Oct-15 10:00N 09°30' W 079°53'714.7
2018-Oct-15 09:30N 09°37' W 079°51'1016.5
2018-Oct-15 08:54N 09°46' W 079°47'23118.2
2018-Oct-14 20:10N 10°17' W 075°54'419.2
2018-Oct-14 19:57N 10°17' W 075°50'919.6
2018-Oct-14 19:30N 10°19' W 075°41'613.7
2018-Oct-14 19:03N 10°19' W 075°35'1 9.8
2018-Oct-14 19:00N 10°19' W 075°34'5 9.9
2018-Oct-14 18:30N 10°24' W 075°32'1 1.5
2018-Oct-14 17:58N 10°24' W 075°32'0 0.0
2018-Oct-14 17:28N 10°24' W 075°32'0 0.0
2018-Oct-14 16:58N 10°24' W 075°32'0 0.0
2018-Oct-14 16:22N 10°24' W 075°32'0 0.0
2018-Oct-14 15:58N 10°24' W 075°32'0 0.0
2018-Oct-14 15:28N 10°24' W 075°32'0 0.0
2018-Oct-14 14:58N 10°24' W 075°32'0 0.0
2018-Oct-14 14:28N 10°24' W 075°32'0 0.0
2018-Oct-14 13:58N 10°24' W 075°32'0 0.0
2018-Oct-14 13:22N 10°24' W 075°32'0 0.0
2018-Oct-14 12:58N 10°24' W 075°32'0 0.0
2018-Oct-14 12:28N 10°24' W 075°32'0 0.0
2018-Oct-14 11:58N 10°24' W 075°32'0 0.6
2018-Oct-14 11:30N 10°24' W 075°32'3 6.6
2018-Oct-14 11:03N 10°21' W 075°32'112.2
2018-Oct-14 11:00N 10°20' W 075°32'611.7
2018-Oct-14 10:30N 10°19' W 075°38'511.0
2018-Oct-14 10:03N 10°21' W 075°42'114.5
2018-Oct-14 10:00N 10°21' W 075°43'1014.2
2018-Oct-14 09:19N 10°29' W 075°49'  
2018-Oct-11 02:42N 24°34' W 080°04'4917.7
2018-Oct-10 23:56N 25°22' W 079°58'717.5
2018-Oct-10 23:30N 25°30' W 079°59'818.0
2018-Oct-10 23:03N 25°38' W 080°01'118.1
2018-Oct-10 23:01N 25°39' W 080°01'816.1
2018-Oct-10 22:30N 25°46' W 080°03'511.2
2018-Oct-10 22:03N 25°46' W 080°09'0 7.2
2018-Oct-10 22:00N 25°46' W 080°09'2 3.2
2018-Oct-10 21:30N 25°46' W 080°11'0 0.0
2018-Oct-10 20:59N 25°46' W 080°11'0 0.0
2018-Oct-10 20:26N 25°46' W 080°11'0 0.0
2018-Oct-10 19:56N 25°46' W 080°11'0 0.0
2018-Oct-10 19:26N 25°46' W 080°11'0 0.0
2018-Oct-10 18:56N 25°46' W 080°11'0 0.0
2018-Oct-10 18:26N 25°46' W 080°11'0 0.0
2018-Oct-10 17:56N 25°46' W 080°11'0 0.0
2018-Oct-10 17:29N 25°46' W 080°11'0 0.0
2018-Oct-10 16:59N 25°46' W 080°11'0 0.0
2018-Oct-10 16:29N 25°46' W 080°11'0 0.0
2018-Oct-10 16:02N 25°46' W 080°11'0 0.0
2018-Oct-10 15:59N 25°46' W 080°11'0 0.0
2018-Oct-10 15:29N 25°46' W 080°11'0 0.0
2018-Oct-10 14:59N 25°46' W 080°11'0 0.0
2018-Oct-10 14:02N 25°46' W 080°11'0 0.1
2018-Oct-10 13:59N 25°46' W 080°11'0 0.0
2018-Oct-10 13:29N 25°46' W 080°11'0 0.0
2018-Oct-10 13:02N 25°46' W 080°11'0 0.0
2018-Oct-10 12:59N 25°46' W 080°11'0 0.0
2018-Oct-10 12:29N 25°46' W 080°11'0 0.0
2018-Oct-10 12:02N 25°46' W 080°11'0 0.0
2018-Oct-10 11:59N 25°46' W 080°11'0 0.0
2018-Oct-10 11:29N 25°46' W 080°11'0 0.0
2018-Oct-10 11:02N 25°46' W 080°11'0 0.0
2018-Oct-10 10:56N 25°46' W 080°11'0 0.0
2018-Oct-10 10:26N 25°46' W 080°11'0 0.0
2018-Oct-10 10:02N 25°46' W 080°11'0 0.0
2018-Oct-10 09:50N 25°46' W 080°11'0 0.0
2018-Oct-10 09:26N 25°46' W 080°11'0 0.0
2018-Oct-10 09:02N 25°46' W 080°11'0 0.0
2018-Oct-10 08:53N 25°46' W 080°11'0 0.0
2018-Oct-10 08:23N 25°46' W 080°11'0 0.0
2018-Oct-10 08:02N 25°46' W 080°11'0 0.0
2018-Oct-10 07:53N 25°46' W 080°11'0 0.0
2018-Oct-10 07:29N 25°46' W 080°11'0 0.0
2018-Oct-10 07:03N 25°46' W 080°11'0 0.3
2018-Oct-10 07:00N 25°46' W 080°11'2 3.9
2018-Oct-10 06:30N 25°46' W 080°09'4 9.1
2018-Oct-10 06:03N 25°46' W 080°04'0 7.4
2018-Oct-10 06:00N 25°46' W 080°04'714.6
2018-Oct-10 05:30N 25°40' W 079°59'919.5
2018-Oct-10 05:03N 25°32' W 079°56'122.3
2018-Oct-10 05:00N 25°31' W 079°55'1122.3
2018-Oct-10 04:30N 25°20' W 079°51'2121.6
2018-Oct-10 03:33N 25°01' W 079°45'121.5
2018-Oct-10 03:30N 24°60' W 079°44'1121.0
2018-Oct-10 03:00N 24°50' W 079°39'1120.5
2018-Oct-10 02:26N 24°39' W 079°35'919.0
2018-Oct-10 01:56N 24°30' W 079°32'1116.7
2018-Oct-10 01:18N 24°20' W 079°28'  
2018-Oct-07 02:01N 10°37' W 075°44'114.4
2018-Oct-07 01:56N 10°36' W 075°44'1114.6
2018-Oct-07 01:11N 10°25' W 075°44'218.4
2018-Oct-07 01:03N 10°22' W 075°44'218.4
2018-Oct-07 00:58N 10°21' W 075°42'816.7
2018-Oct-07 00:30N 10°19' W 075°35'4 9.4
2018-Oct-07 00:03N 10°22' W 075°32'113.1
2018-Oct-07 00:00N 10°23' W 075°32'2 3.1
2018-Oct-06 23:30N 10°24' W 075°32'0 0.0
2018-Oct-06 23:03N 10°24' W 075°32'0 0.0
2018-Oct-06 23:00N 10°24' W 075°32'0 0.0
2018-Oct-06 22:30N 10°24' W 075°32'0 0.0
2018-Oct-06 22:03N 10°24' W 075°32'0 0.1
2018-Oct-06 22:00N 10°24' W 075°32'0 0.0
2018-Oct-06 21:30N 10°24' W 075°32'0 0.0
2018-Oct-06 21:03N 10°24' W 075°32'0 0.0
2018-Oct-06 21:00N 10°24' W 075°32'0 0.0
2018-Oct-06 20:30N 10°24' W 075°32'0 0.0
2018-Oct-06 20:03N 10°24' W 075°32'0 0.0
2018-Oct-06 20:00N 10°24' W 075°32'0 0.0
2018-Oct-06 19:30N 10°24' W 075°32'0 0.0
2018-Oct-06 19:00N 10°24' W 075°32'0 0.0
2018-Oct-06 18:27N 10°24' W 075°32'0 0.0
2018-Oct-06 18:03N 10°24' W 075°32'0 0.0
2018-Oct-06 18:00N 10°24' W 075°32'0 0.0
2018-Oct-06 17:30N 10°24' W 075°32'0 0.0
2018-Oct-06 17:00N 10°24' W 075°32'0 0.2
2018-Oct-06 16:30N 10°24' W 075°32'2 3.7
2018-Oct-06 16:04N 10°23' W 075°32'112.2
2018-Oct-06 16:00N 10°22' W 075°32'510.3
2018-Oct-06 15:30N 10°19' W 075°36'612.5
2018-Oct-06 15:03N 10°18' W 075°42'113.6
2018-Oct-06 15:00N 10°18' W 075°42'714.0
2018-Oct-06 14:30N 10°17' W 075°50'24014.0
2018-Oct-05 21:23N 09°34' W 079°49'513.7
2018-Oct-05 21:03N 09°30' W 079°52'113.7
2018-Oct-05 21:00N 09°30' W 079°52'713.0
2018-Oct-05 20:30N 09°24' W 079°55'4 9.2
2018-Oct-05 20:03N 09°20' W 079°55'0 7.4
2018-Oct-05 20:00N 09°19' W 079°55'3 5.3
2018-Oct-05 19:28N 09°17' W 079°55'0 0.5
2018-Oct-05 19:03N 09°16' W 079°55'0 0.0
2018-Oct-05 19:00N 09°16' W 079°55'0 0.4
2018-Oct-05 18:30N 09°16' W 079°55'0 0.9
2018-Oct-05 18:03N 09°16' W 079°55'0 3.5
2018-Oct-05 18:00N 09°16' W 079°55'3 6.6
2018-Oct-05 17:29N 09°12' W 079°55'  
Track history (hours):
 
Tides and Currents Weather Stations Pressure Air Temp Water Temp Dewpoint Dewpoint Depression Visibility Wind Speed Wind Dir Waves Ship Positions

Seven Seas Mariner

Last reported at 2018-Oct-15 15:12 UTC. Time now 2018-Nov-13 07:16 UTC.
Position N 09°13' W 079°55'.
Warning: this ship's position is 28 days out of date.

Length 216 m; draft 7.2 m.

Type: Passenger vessel. MMSI: 311622000.

Date/timePositionNaut miles runAvg speedWind from/ knotsBaromVisibWave heightAir tempDewpointWater temp
2018-Oct-15 15:12N 09°13' W 079°55'1 4.2
2018-Oct-15 14:59N 09°13' W 079°56'0 0.7
2018-Oct-15 14:25N 09°14' W 079°55'1 2.9
2018-Oct-15 14:00N 09°15' W 079°55'1 2.3
2018-Oct-15 13:30N 09°16' W 079°55'0 0.4
2018-Oct-15 13:03N 09°16' W 079°55'0 0.0
2018-Oct-15 13:00N 09°16' W 079°55'0 0.6
2018-Oct-15 12:29N 09°17' W 079°55'0 0.4
2018-Oct-15 12:01N 09°17' W 079°55'0 1.6
2018-Oct-15 11:59N 09°17' W 079°55'2 3.5
2018-Oct-15 11:30N 09°19' W 079°55'2 5.0
2018-Oct-15 11:03N 09°21' W 079°55'0 5.0
2018-Oct-15 11:00N 09°21' W 079°55'3 5.6
2018-Oct-15 10:30N 09°24' W 079°55'511.6
2018-Oct-15 10:03N 09°29' W 079°53'115.4
2018-Oct-15 10:00N 09°30' W 079°53'714.7
2018-Oct-15 09:30N 09°37' W 079°51'1016.5
2018-Oct-15 08:54N 09°46' W 079°47'23118.2
2018-Oct-14 20:10N 10°17' W 075°54'419.2
2018-Oct-14 19:57N 10°17' W 075°50'919.6
2018-Oct-14 19:30N 10°19' W 075°41'613.7
2018-Oct-14 19:03N 10°19' W 075°35'1 9.8
2018-Oct-14 19:00N 10°19' W 075°34'5 9.9
2018-Oct-14 18:30N 10°24' W 075°32'1 1.5
2018-Oct-14 17:58N 10°24' W 075°32'0 0.0
2018-Oct-14 17:28N 10°24' W 075°32'0 0.0
2018-Oct-14 16:58N 10°24' W 075°32'0 0.0
2018-Oct-14 16:22N 10°24' W 075°32'0 0.0
2018-Oct-14 15:58N 10°24' W 075°32'0 0.0
2018-Oct-14 15:28N 10°24' W 075°32'0 0.0
2018-Oct-14 14:58N 10°24' W 075°32'0 0.0
2018-Oct-14 14:28N 10°24' W 075°32'0 0.0
2018-Oct-14 13:58N 10°24' W 075°32'0 0.0
2018-Oct-14 13:22N 10°24' W 075°32'0 0.0
2018-Oct-14 12:58N 10°24' W 075°32'0 0.0
2018-Oct-14 12:28N 10°24' W 075°32'0 0.0
2018-Oct-14 11:58N 10°24' W 075°32'0 0.6
2018-Oct-14 11:30N 10°24' W 075°32'3 6.6
2018-Oct-14 11:03N 10°21' W 075°32'112.2
2018-Oct-14 11:00N 10°20' W 075°32'611.7
2018-Oct-14 10:30N 10°19' W 075°38'511.0
2018-Oct-14 10:03N 10°21' W 075°42'114.5
2018-Oct-14 10:00N 10°21' W 075°43'1014.2
2018-Oct-14 09:19N 10°29' W 075°49'  
2018-Oct-11 02:42N 24°34' W 080°04'4917.7
2018-Oct-10 23:56N 25°22' W 079°58'717.5
2018-Oct-10 23:30N 25°30' W 079°59'818.0
2018-Oct-10 23:03N 25°38' W 080°01'118.1
2018-Oct-10 23:01N 25°39' W 080°01'816.1
2018-Oct-10 22:30N 25°46' W 080°03'511.2
2018-Oct-10 22:03N 25°46' W 080°09'0 7.2
2018-Oct-10 22:00N 25°46' W 080°09'2 3.2
2018-Oct-10 21:30N 25°46' W 080°11'0 0.0
2018-Oct-10 20:59N 25°46' W 080°11'0 0.0
2018-Oct-10 20:26N 25°46' W 080°11'0 0.0
2018-Oct-10 19:56N 25°46' W 080°11'0 0.0
2018-Oct-10 19:26N 25°46' W 080°11'0 0.0
2018-Oct-10 18:56N 25°46' W 080°11'0 0.0
2018-Oct-10 18:26N 25°46' W 080°11'0 0.0
2018-Oct-10 17:56N 25°46' W 080°11'0 0.0
2018-Oct-10 17:29N 25°46' W 080°11'0 0.0
2018-Oct-10 16:59N 25°46' W 080°11'0 0.0
2018-Oct-10 16:29N 25°46' W 080°11'0 0.0
2018-Oct-10 16:02N 25°46' W 080°11'0 0.0
2018-Oct-10 15:59N 25°46' W 080°11'0 0.0
2018-Oct-10 15:29N 25°46' W 080°11'0 0.0
2018-Oct-10 14:59N 25°46' W 080°11'0 0.0
2018-Oct-10 14:02N 25°46' W 080°11'0 0.1
2018-Oct-10 13:59N 25°46' W 080°11'0 0.0
2018-Oct-10 13:29N 25°46' W 080°11'0 0.0
2018-Oct-10 13:02N 25°46' W 080°11'0 0.0
2018-Oct-10 12:59N 25°46' W 080°11'0 0.0
2018-Oct-10 12:29N 25°46' W 080°11'0 0.0
2018-Oct-10 12:02N 25°46' W 080°11'0 0.0
2018-Oct-10 11:59N 25°46' W 080°11'0 0.0
2018-Oct-10 11:29N 25°46' W 080°11'0 0.0
2018-Oct-10 11:02N 25°46' W 080°11'0 0.0
2018-Oct-10 10:56N 25°46' W 080°11'0 0.0
2018-Oct-10 10:26N 25°46' W 080°11'0 0.0
2018-Oct-10 10:02N 25°46' W 080°11'0 0.0
2018-Oct-10 09:50N 25°46' W 080°11'0 0.0
2018-Oct-10 09:26N 25°46' W 080°11'0 0.0
2018-Oct-10 09:02N 25°46' W 080°11'0 0.0
2018-Oct-10 08:53N 25°46' W 080°11'0 0.0
2018-Oct-10 08:23N 25°46' W 080°11'0 0.0
2018-Oct-10 08:02N 25°46' W 080°11'0 0.0
2018-Oct-10 07:53N 25°46' W 080°11'0 0.0
2018-Oct-10 07:29N 25°46' W 080°11'0 0.0
2018-Oct-10 07:03N 25°46' W 080°11'0 0.3
2018-Oct-10 07:00N 25°46' W 080°11'2 3.9
2018-Oct-10 06:30N 25°46' W 080°09'4 9.1
2018-Oct-10 06:03N 25°46' W 080°04'0 7.4
2018-Oct-10 06:00N 25°46' W 080°04'714.6
2018-Oct-10 05:30N 25°40' W 079°59'919.5
2018-Oct-10 05:03N 25°32' W 079°56'122.3
2018-Oct-10 05:00N 25°31' W 079°55'1122.3
2018-Oct-10 04:30N 25°20' W 079°51'2121.6
2018-Oct-10 03:33N 25°01' W 079°45'121.5
2018-Oct-10 03:30N 24°60' W 079°44'1121.0
2018-Oct-10 03:00N 24°50' W 079°39'1120.5
2018-Oct-10 02:26N 24°39' W 079°35'919.0
2018-Oct-10 01:56N 24°30' W 079°32'1116.7
2018-Oct-10 01:18N 24°20' W 079°28'  
2018-Oct-07 02:01N 10°37' W 075°44'114.4
2018-Oct-07 01:56N 10°36' W 075°44'1114.6
2018-Oct-07 01:11N 10°25' W 075°44'218.4
2018-Oct-07 01:03N 10°22' W 075°44'218.4
2018-Oct-07 00:58N 10°21' W 075°42'816.7
2018-Oct-07 00:30N 10°19' W 075°35'4 9.4
2018-Oct-07 00:03N 10°22' W 075°32'113.1
2018-Oct-07 00:00N 10°23' W 075°32'2 3.1
2018-Oct-06 23:30N 10°24' W 075°32'0 0.0
2018-Oct-06 23:03N 10°24' W 075°32'0 0.0
2018-Oct-06 23:00N 10°24' W 075°32'0 0.0
2018-Oct-06 22:30N 10°24' W 075°32'0 0.0
2018-Oct-06 22:03N 10°24' W 075°32'0 0.1
2018-Oct-06 22:00N 10°24' W 075°32'0 0.0
2018-Oct-06 21:30N 10°24' W 075°32'0 0.0
2018-Oct-06 21:03N 10°24' W 075°32'0 0.0
2018-Oct-06 21:00N 10°24' W 075°32'0 0.0
2018-Oct-06 20:30N 10°24' W 075°32'0 0.0
2018-Oct-06 20:03N 10°24' W 075°32'0 0.0
2018-Oct-06 20:00N 10°24' W 075°32'0 0.0
2018-Oct-06 19:30N 10°24' W 075°32'0 0.0
2018-Oct-06 19:00N 10°24' W 075°32'0 0.0
2018-Oct-06 18:27N 10°24' W 075°32'0 0.0
2018-Oct-06 18:03N 10°24' W 075°32'0 0.0
2018-Oct-06 18:00N 10°24' W 075°32'0 0.0
2018-Oct-06 17:30N 10°24' W 075°32'0 0.0
2018-Oct-06 17:00N 10°24' W 075°32'0 0.2
2018-Oct-06 16:30N 10°24' W 075°32'2 3.7
2018-Oct-06 16:04N 10°23' W 075°32'112.2
2018-Oct-06 16:00N 10°22' W 075°32'510.3
2018-Oct-06 15:30N 10°19' W 075°36'612.5
2018-Oct-06 15:03N 10°18' W 075°42'113.6
2018-Oct-06 15:00N 10°18' W 075°42'714.0
2018-Oct-06 14:30N 10°17' W 075°50'24014.0
2018-Oct-05 21:23N 09°34' W 079°49'513.7
2018-Oct-05 21:03N 09°30' W 079°52'113.7
2018-Oct-05 21:00N 09°30' W 079°52'713.0
2018-Oct-05 20:30N 09°24' W 079°55'4 9.2
2018-Oct-05 20:03N 09°20' W 079°55'0 7.4
2018-Oct-05 20:00N 09°19' W 079°55'3 5.3
2018-Oct-05 19:28N 09°17' W 079°55'0 0.5
2018-Oct-05 19:03N 09°16' W 079°55'0 0.0
2018-Oct-05 19:00N 09°16' W 079°55'0 0.4
2018-Oct-05 18:30N 09°16' W 079°55'0 0.9
2018-Oct-05 18:03N 09°16' W 079°55'0 3.5
2018-Oct-05 18:00N 09°16' W 079°55'3 6.6
2018-Oct-05 17:29N 09°12' W 079°55'  

Dump ship's entire track history